createdAt,value
2018-01-19T00:02:17.874Z,5.27
2018-01-19T00:04:45.394Z,4.10
2018-01-19T00:07:14.089Z,4.00
2018-01-19T00:09:41.676Z,3.53
2018-01-19T00:12:09.350Z,3.30
2018-01-19T00:14:37.043Z,3.63
2018-01-19T00:17:03.837Z,3.23
2018-01-19T00:19:31.482Z,3.60
2018-01-19T00:21:59.033Z,3.73
2018-01-19T00:24:26.533Z,5.27
2018-01-19T00:26:53.447Z,4.90
2018-01-19T00:29:21.459Z,6.30
2018-01-19T00:31:48.498Z,10.90
2018-01-19T00:34:16.633Z,3.90
2018-01-19T00:36:44.294Z,3.60
2018-01-19T00:39:10.979Z,3.20
2018-01-19T00:41:38.181Z,3.63
2018-01-19T00:44:05.908Z,3.73
2018-01-19T00:46:40.101Z,3.37
2018-01-19T00:49:06.822Z,3.77
2018-01-19T00:51:33.907Z,3.70
2018-01-19T00:54:01.503Z,3.43
2018-01-19T00:56:37.221Z,3.50
2018-01-19T00:59:06.021Z,3.10
2018-01-19T01:01:33.807Z,3.40
2018-01-19T01:04:02.138Z,3.43
2018-01-19T01:06:29.409Z,3.70
2018-01-19T01:08:57.392Z,3.40
2018-01-19T01:11:52.337Z,3.33
2018-01-19T01:14:30.451Z,3.57
2018-01-19T01:19:46.885Z,3.70
2018-01-19T01:22:18.336Z,3.50
2018-01-19T01:24:46.116Z,3.80
2018-01-19T01:27:13.476Z,6.60
2018-01-19T01:29:41.828Z,7.23
2018-01-19T01:32:12.361Z,6.80
2018-01-19T01:34:41.793Z,7.93
2018-01-19T01:37:12.416Z,5.43
2018-01-19T01:39:39.381Z,5.20
2018-01-19T01:42:08.148Z,8.97
2018-01-19T01:44:37.040Z,9.40
2018-01-19T01:47:04.069Z,6.27
2018-01-19T01:49:33.158Z,4.70
2018-01-19T01:52:03.471Z,4.80
2018-01-19T01:54:31.360Z,6.80
2018-01-19T01:56:59.269Z,6.47
2018-01-19T01:59:31.525Z,7.33
2018-01-19T02:02:04.308Z,8.47
2018-01-19T02:04:32.037Z,8.10
2018-01-19T02:06:59.776Z,8.87
2018-01-19T02:09:27.868Z,10.27
2018-01-19T02:11:56.311Z,6.83
2018-01-19T02:14:23.937Z,6.40
2018-01-19T02:16:52.160Z,5.50
2018-01-19T02:19:20.164Z,5.77
2018-01-19T02:21:50.159Z,5.40
2018-01-19T02:24:18.355Z,5.10
2018-01-19T02:26:48.392Z,5.50
2018-01-19T02:29:17.288Z,6.87
2018-01-19T02:31:45.358Z,9.13
2018-01-19T02:34:12.825Z,8.47
2018-01-19T02:36:40.352Z,5.30
2018-01-19T02:39:09.015Z,4.97
2018-01-19T02:41:40.569Z,4.87
2018-01-19T02:44:09.066Z,5.33
2018-01-19T02:46:38.167Z,6.93
2018-01-19T02:49:08.603Z,8.57
2018-01-19T02:51:36.392Z,9.27
2018-01-19T02:54:03.315Z,7.93
2018-01-19T02:56:30.182Z,6.40
2018-01-19T02:58:57.494Z,5.33
2018-01-19T03:01:24.579Z,7.07
2018-01-19T03:03:52.730Z,6.90
2018-01-19T03:06:21.324Z,6.40
2018-01-19T03:08:50.342Z,5.10
2018-01-19T03:11:20.066Z,4.80
2018-01-19T03:13:51.679Z,10.10
2018-01-19T03:16:19.270Z,6.03
2018-01-19T03:18:46.738Z,7.13
2018-01-19T03:21:22.168Z,8.13
2018-01-19T03:23:49.207Z,8.07
2018-01-19T03:26:19.899Z,8.87
2018-01-19T03:28:48.407Z,7.33
2018-01-19T03:31:17.384Z,7.87
2018-01-19T03:33:47.385Z,7.53
2018-01-19T03:36:14.616Z,9.80
2018-01-19T03:38:42.888Z,11.63
2018-01-19T03:41:11.310Z,9.73
2018-01-19T03:43:44.293Z,10.63
2018-01-19T03:46:16.201Z,11.30
2018-01-19T03:48:48.686Z,12.77
2018-01-19T03:51:18.393Z,13.67
2018-01-19T03:53:46.966Z,14.80
2018-01-19T03:56:15.153Z,13.77
2018-01-19T03:58:42.084Z,12.67
2018-01-19T04:01:10.094Z,14.17
2018-01-19T04:03:38.753Z,14.90
2018-01-19T04:06:06.609Z,12.30
2018-01-19T04:08:37.428Z,12.63
2018-01-19T04:11:08.405Z,13.93
2018-01-19T04:13:36.184Z,12.87
2018-01-19T04:16:03.289Z,11.53
2018-01-19T04:18:30.651Z,11.63
2018-01-19T04:21:02.350Z,15.23
2018-01-19T04:23:31.606Z,15.10
2018-01-19T04:25:59.066Z,14.30
2018-01-19T04:28:26.669Z,10.23
2018-01-19T04:30:53.629Z,11.27
2018-01-19T04:33:27.348Z,10.83
2018-01-19T04:35:55.332Z,13.50
2018-01-19T04:38:23.696Z,12.17
2018-01-19T04:40:51.736Z,10.63
2018-01-19T04:43:20.209Z,11.03
2018-01-19T04:45:47.317Z,13.63
2018-01-19T04:48:14.882Z,15.90
2018-01-19T04:50:43.628Z,19.77
2018-01-19T04:53:11.462Z,23.00
2018-01-19T04:55:41.053Z,16.63
2018-01-19T04:58:10.908Z,13.20
2018-01-19T05:00:37.997Z,11.60
2018-01-19T05:03:04.627Z,12.50
2018-01-19T05:05:33.703Z,10.90
2018-01-19T05:08:02.759Z,9.20
2018-01-19T05:10:36.896Z,12.10
2018-01-19T05:13:04.760Z,10.70
2018-01-19T05:15:32.349Z,12.07
2018-01-19T05:18:01.808Z,15.43
2018-01-19T05:20:30.305Z,23.53
2018-01-19T05:22:57.179Z,15.87
2018-01-19T05:25:25.602Z,18.10
2018-01-19T05:27:52.280Z,18.17
2018-01-19T05:30:20.042Z,13.10
2018-01-19T05:32:48.111Z,10.33
2018-01-19T05:35:16.531Z,10.37
2018-01-19T05:37:44.234Z,10.10
2018-01-19T05:40:13.357Z,10.07
2018-01-19T05:42:41.738Z,11.17
2018-01-19T05:45:09.340Z,9.77
2018-01-19T05:47:36.497Z,13.63
2018-01-19T05:50:09.239Z,15.33
2018-01-19T05:52:36.012Z,11.53
2018-01-19T05:55:03.890Z,15.90
2018-01-19T05:57:30.841Z,17.70
2018-01-19T05:59:58.563Z,17.00
2018-01-19T06:02:26.034Z,14.83
2018-01-19T06:04:52.961Z,10.83
2018-01-19T06:07:20.710Z,5.00
2018-01-19T06:09:49.923Z,3.50
2018-01-19T06:12:17.022Z,2.20
2018-01-19T06:14:45.358Z,1.97
2018-01-19T06:17:12.372Z,1.67
2018-01-19T06:19:41.622Z,3.10
2018-01-19T06:22:11.063Z,3.57
2018-01-19T06:24:38.511Z,7.13
2018-01-19T06:27:06.921Z,8.52
2018-01-19T06:29:37.022Z,11.43
2018-01-19T06:32:04.004Z,13.47
2018-01-19T06:34:30.968Z,11.30
2018-01-19T06:36:57.975Z,13.00
2018-01-19T06:39:26.330Z,9.70
2018-01-19T06:41:53.505Z,12.27
2018-01-19T06:44:22.157Z,12.27
2018-01-19T06:46:50.014Z,10.83
2018-01-19T06:49:17.438Z,10.90
2018-01-19T06:51:45.507Z,13.93
2018-01-19T06:54:16.533Z,9.90
2018-01-19T06:56:44.943Z,12.30
2018-01-19T06:59:13.638Z,16.50
2018-01-19T07:01:41.637Z,16.57
2018-01-19T07:04:09.798Z,25.07
2018-01-19T07:06:36.818Z,33.87
2018-01-19T07:09:05.791Z,37.77
2018-01-19T07:11:35.798Z,30.13
2018-01-19T07:14:03.060Z,26.63
2018-01-19T07:16:30.725Z,21.53
2018-01-19T07:19:04.074Z,27.07
2018-01-19T07:21:30.536Z,37.17
2018-01-19T07:23:56.966Z,30.67
2018-01-19T07:26:24.095Z,18.20
2018-01-19T07:28:51.387Z,15.90
2018-01-19T07:31:18.742Z,12.23
2018-01-19T07:33:46.102Z,12.33
2018-01-19T07:36:13.986Z,9.10
2018-01-19T07:38:40.688Z,5.37
2018-01-19T07:41:09.285Z,5.10
2018-01-19T07:43:36.864Z,5.00
2018-01-19T07:46:04.153Z,4.37
2018-01-19T07:48:31.526Z,5.00
2018-01-19T07:50:59.766Z,3.63
2018-01-19T07:53:28.260Z,3.33
2018-01-19T07:55:55.001Z,4.97
2018-01-19T07:58:22.598Z,6.50
2018-01-19T08:00:51.137Z,14.70
2018-01-19T08:03:21.893Z,24.40
2018-01-19T08:05:51.156Z,59.87
2018-01-19T08:08:20.782Z,39.80
2018-01-19T08:10:47.397Z,27.60
2018-01-19T08:13:15.587Z,10.03
2018-01-19T08:15:44.059Z,9.87
2018-01-19T08:18:10.957Z,7.73
2018-01-19T08:20:40.167Z,8.23
2018-01-19T08:23:09.218Z,11.70
2018-01-19T08:25:37.574Z,6.37
2018-01-19T08:28:04.278Z,6.70
2018-01-19T08:30:34.946Z,6.40
2018-01-19T08:33:05.170Z,7.33
2018-01-19T08:35:34.661Z,7.30
2018-01-19T08:38:01.064Z,10.20
2018-01-19T08:40:30.661Z,10.60
2018-01-19T08:42:57.917Z,9.10
2018-01-19T08:45:30.385Z,8.03
2018-01-19T08:48:01.244Z,8.97
2018-01-19T08:50:30.772Z,7.67
2018-01-19T08:52:58.196Z,7.37
2018-01-19T08:55:24.869Z,9.03
2018-01-19T08:57:52.592Z,9.80
2018-01-19T09:00:21.420Z,6.43
2018-01-19T09:02:48.290Z,9.30
2018-01-19T09:05:16.504Z,12.53
2018-01-19T09:07:43.845Z,9.23
2018-01-19T09:10:15.782Z,12.30
2018-01-19T09:12:45.313Z,10.53
2018-01-19T09:15:12.659Z,11.10
2018-01-19T09:17:40.594Z,11.10
2018-01-19T09:20:09.654Z,10.93
2018-01-19T09:22:37.038Z,10.20
2018-01-19T09:25:03.364Z,10.40
2018-01-19T09:27:29.692Z,16.93
2018-01-19T09:29:57.949Z,11.07
2018-01-19T09:32:25.223Z,7.73
2018-01-19T09:34:51.625Z,8.10
2018-01-19T09:37:18.102Z,8.97
2018-01-19T09:39:46.013Z,7.50
2018-01-19T09:42:12.441Z,6.13
2018-01-19T09:44:39.460Z,8.90
2018-01-19T09:47:05.650Z,7.83
2018-01-19T09:49:32.154Z,8.70
2018-01-19T09:51:58.337Z,8.90
2018-01-19T09:54:24.684Z,5.00
2018-01-19T09:56:51.152Z,5.73
2018-01-19T09:59:17.635Z,8.00
2018-01-19T10:01:43.959Z,5.30
2018-01-19T10:04:10.272Z,5.87
2018-01-19T10:06:36.866Z,7.97
2018-01-19T10:09:04.358Z,8.00
2018-01-19T10:11:30.711Z,7.83
2018-01-19T10:13:57.113Z,8.47
2018-01-19T10:16:23.330Z,7.70
2018-01-19T10:18:50.358Z,9.00
2018-01-19T10:21:16.707Z,10.00
2018-01-19T10:23:43.225Z,11.20
2018-01-19T10:26:09.794Z,10.97
2018-01-19T10:28:36.355Z,10.83
2018-01-19T10:31:02.672Z,11.43
2018-01-19T10:33:28.881Z,11.07
2018-01-19T10:35:55.273Z,12.43
2018-01-19T10:38:22.211Z,10.07
2018-01-19T10:40:48.448Z,16.77
2018-01-19T10:43:14.753Z,9.87
2018-01-19T10:45:40.934Z,7.10
2018-01-19T10:48:07.226Z,5.20
2018-01-19T10:50:33.696Z,5.93
2018-01-19T10:53:02.732Z,11.80
2018-01-19T10:55:35.219Z,10.73
2018-01-19T10:58:08.025Z,12.53
2018-01-19T11:00:35.769Z,12.20
2018-01-19T11:03:04.234Z,6.37
2018-01-19T11:05:31.307Z,7.80
2018-01-19T11:07:58.346Z,11.70
2018-01-19T11:10:25.101Z,4.43
2018-01-19T11:12:53.616Z,8.40
2018-01-19T11:15:24.076Z,8.10
2018-01-19T11:17:51.118Z,6.40
2018-01-19T11:20:20.130Z,6.00
2018-01-19T11:22:47.895Z,4.07
2018-01-19T11:25:15.235Z,6.20
2018-01-19T11:27:42.122Z,6.37
2018-01-19T11:30:10.097Z,9.07
2018-01-19T11:32:37.229Z,3.47
2018-01-19T11:35:04.527Z,4.33
2018-01-19T11:37:33.490Z,3.50
2018-01-19T11:40:01.156Z,3.00
2018-01-19T11:42:28.556Z,3.50
2018-01-19T11:44:56.675Z,3.63
2018-01-19T11:47:25.127Z,4.43
2018-01-19T11:49:53.341Z,3.80
2018-01-19T11:52:20.052Z,4.07
2018-01-19T11:54:48.001Z,3.30
2018-01-19T11:57:15.946Z,4.03
2018-01-19T11:59:42.723Z,5.70
2018-01-19T12:02:10.692Z,4.53
2018-01-19T12:04:40.676Z,4.37
2018-01-19T12:07:11.076Z,7.20
2018-01-19T12:09:39.914Z,5.20
2018-01-19T12:12:06.861Z,5.10
2018-01-19T12:14:34.232Z,4.67
2018-01-19T12:17:01.193Z,4.70
2018-01-19T12:19:34.348Z,6.97
2018-01-19T12:22:01.085Z,4.83
2018-01-19T12:24:27.998Z,8.23
2018-01-19T12:26:55.703Z,6.03
2018-01-19T12:29:25.528Z,3.90
2018-01-19T12:31:52.920Z,3.10
2018-01-19T12:34:19.255Z,2.10
2018-01-19T12:36:45.513Z,2.50
2018-01-19T12:39:13.033Z,14.13
2018-01-19T12:41:40.452Z,1.97
2018-01-19T12:44:07.400Z,1.80
2018-01-19T12:46:35.643Z,1.47
2018-01-19T12:49:03.223Z,2.10
2018-01-19T12:51:34.478Z,1.83
2018-01-19T12:54:02.859Z,1.97
2018-01-19T12:56:31.386Z,1.67
2018-01-19T12:58:59.277Z,2.23
2018-01-19T13:01:29.199Z,1.80
2018-01-19T13:03:56.152Z,1.67
2018-01-19T13:06:22.704Z,1.93
2018-01-19T13:08:50.789Z,1.30
2018-01-19T13:11:17.643Z,1.13
2018-01-19T13:13:44.603Z,1.20
2018-01-19T13:16:12.020Z,1.00
2018-01-19T13:18:38.970Z,1.30
2018-01-19T13:21:05.583Z,1.30
2018-01-19T13:23:34.827Z,1.40
2018-01-19T13:26:03.646Z,1.30
2018-01-19T13:28:32.379Z,1.80
2018-01-19T13:31:00.225Z,1.20
2018-01-19T13:33:26.832Z,1.33
2018-01-19T13:35:55.008Z,1.67
2018-01-19T13:38:21.758Z,1.70
2018-01-19T13:40:49.927Z,1.63
2018-01-19T13:43:18.024Z,2.40
2018-01-19T13:45:45.351Z,2.13
2018-01-19T13:48:13.105Z,2.00
2018-01-19T13:50:41.293Z,1.80
2018-01-19T13:53:08.826Z,1.70
2018-01-19T13:55:36.728Z,1.83
2018-01-19T13:58:04.937Z,1.87
2018-01-19T14:00:33.178Z,2.40
2018-01-19T14:03:00.632Z,1.63
2018-01-19T14:05:27.334Z,2.60
2018-01-19T14:07:56.452Z,3.10
2018-01-19T14:10:23.075Z,4.10
2018-01-19T14:12:51.158Z,2.83
2018-01-19T14:15:18.376Z,2.10
2018-01-19T14:17:45.394Z,1.97
2018-01-19T14:20:11.992Z,1.73
2018-01-19T14:22:38.756Z,2.23
2018-01-19T14:25:05.832Z,1.57
2018-01-19T14:27:33.668Z,27.43
2018-01-19T14:30:03.496Z,3.73
2018-01-19T14:32:30.857Z,2.37
2018-01-19T14:34:58.162Z,2.47
2018-01-19T14:37:27.217Z,3.53
2018-01-19T14:39:59.929Z,4.30
2018-01-19T14:42:26.863Z,7.10
2018-01-19T14:44:53.258Z,7.33
2018-01-19T14:47:21.263Z,4.97
2018-01-19T14:49:48.975Z,6.50
2018-01-19T14:52:16.693Z,7.10
2018-01-19T14:54:44.759Z,6.93
2018-01-19T14:57:12.234Z,6.60
2018-01-19T14:59:39.910Z,6.87
2018-01-19T15:02:08.162Z,7.37
2018-01-19T15:04:36.576Z,6.83
2018-01-19T15:07:04.768Z,7.87
2018-01-19T15:09:31.966Z,7.70
2018-01-19T15:11:59.732Z,5.93
2018-01-19T15:14:27.673Z,6.37
2018-01-19T15:16:54.419Z,6.90
2018-01-19T15:19:21.223Z,10.13
2018-01-19T15:21:49.673Z,11.63
2018-01-19T15:24:19.258Z,17.07
2018-01-19T15:26:46.900Z,21.60
2018-01-19T15:29:14.550Z,33.37
2018-01-19T15:31:41.290Z,35.97
2018-01-19T15:34:10.280Z,33.17
2018-01-19T15:36:39.384Z,37.27
2018-01-19T15:39:11.191Z,49.67
2018-01-19T15:41:42.788Z,104.33
2018-01-19T15:44:09.920Z,39.13
2018-01-19T15:46:36.844Z,49.03
2018-01-19T15:49:03.840Z,83.47
2018-01-19T15:51:31.295Z,110.00
2018-01-19T15:53:58.502Z,43.00
2018-01-19T15:56:25.466Z,85.70
2018-01-19T15:58:52.152Z,63.53
2018-01-19T16:01:20.990Z,55.60
2018-01-19T16:03:47.925Z,88.00
2018-01-19T16:06:14.966Z,117.83
2018-01-19T16:08:42.656Z,124.63
2018-01-19T16:11:10.479Z,65.47
2018-01-19T16:13:37.653Z,81.27
2018-01-19T16:16:08.945Z,35.97
2018-01-19T16:18:36.121Z,84.57
2018-01-19T16:21:03.264Z,71.70
2018-01-19T16:23:30.548Z,59.67
2018-01-19T16:25:57.185Z,48.37
2018-01-19T16:28:24.847Z,36.07
2018-01-19T16:30:51.901Z,47.67
2018-01-19T16:33:20.015Z,43.37
2018-01-19T16:35:48.381Z,29.07
2018-01-19T16:38:15.770Z,21.70
2018-01-19T16:40:43.780Z,20.33
2018-01-19T16:43:10.425Z,18.83
2018-01-19T16:45:37.407Z,23.53
2018-01-19T16:48:04.467Z,26.57
2018-01-19T16:50:33.322Z,29.57
2018-01-19T16:52:59.935Z,44.80
2018-01-19T16:55:28.051Z,30.00
2018-01-19T16:57:57.851Z,33.33
2018-01-19T17:00:25.750Z,25.33
2018-01-19T17:02:55.506Z,30.03
2018-01-19T17:05:22.461Z,66.33
2018-01-19T17:07:49.961Z,57.23
2018-01-19T17:10:19.474Z,46.37
2018-01-19T17:12:46.637Z,64.03
2018-01-19T17:15:15.859Z,83.23
2018-01-19T17:17:46.776Z,62.17
2018-01-19T17:20:14.786Z,56.37
2018-01-19T17:22:42.788Z,65.00
2018-01-19T17:25:10.048Z,48.43
2018-01-19T17:27:45.110Z,35.13
2018-01-19T17:30:12.110Z,27.70
2018-01-19T17:32:38.912Z,27.60
2018-01-19T17:35:05.552Z,23.03
2018-01-19T17:37:33.480Z,20.63
2018-01-19T17:40:02.700Z,14.40
2018-01-19T17:42:30.177Z,11.20
2018-01-19T17:44:57.229Z,14.13
2018-01-19T17:47:25.371Z,23.00
2018-01-19T17:49:52.736Z,17.70
2018-01-19T17:52:23.147Z,53.47
2018-01-19T17:54:50.889Z,45.60
2018-01-19T17:57:17.948Z,51.47
2018-01-19T17:59:46.031Z,15.07
2018-01-19T18:02:13.859Z,28.13
2018-01-19T18:04:40.997Z,31.13
2018-01-19T18:07:08.136Z,37.30
2018-01-19T18:09:36.001Z,26.20
2018-01-19T18:12:03.259Z,14.37
2018-01-19T18:14:30.213Z,6.23
2018-01-19T18:17:04.055Z,10.27
2018-01-19T18:19:33.973Z,13.27
2018-01-19T18:22:01.290Z,24.07
2018-01-19T18:24:31.386Z,27.77
2018-01-19T18:26:58.596Z,29.53
2018-01-19T18:29:32.380Z,25.47
2018-01-19T18:32:01.156Z,26.43
2018-01-19T18:34:28.857Z,21.07
2018-01-19T18:36:57.052Z,18.10
2018-01-19T18:39:24.515Z,22.47
2018-01-19T18:41:51.347Z,23.57
2018-01-19T18:44:19.193Z,24.23
2018-01-19T18:46:46.059Z,27.37
2018-01-19T18:49:13.423Z,33.77
2018-01-19T18:51:40.988Z,20.10
2018-01-19T18:54:09.248Z,24.07
2018-01-19T18:56:37.278Z,13.83
2018-01-19T18:59:05.909Z,10.20
2018-01-19T19:01:33.004Z,13.30
2018-01-19T19:04:00.606Z,14.20
2018-01-19T19:06:28.132Z,15.43
2018-01-19T19:08:55.467Z,27.67
2018-01-19T19:11:23.136Z,23.20
2018-01-19T19:13:50.128Z,16.67
2018-01-19T19:16:17.669Z,17.70
2018-01-19T19:18:44.440Z,21.50
2018-01-19T19:21:13.207Z,34.77
2018-01-19T19:23:40.045Z,34.03
2018-01-19T19:26:09.499Z,23.90
2018-01-19T19:28:38.541Z,12.90
2018-01-19T19:31:05.220Z,20.57
2018-01-19T19:33:33.300Z,38.60
2018-01-19T19:36:01.005Z,12.13
2018-01-19T19:38:27.852Z,19.60
2018-01-19T19:40:55.166Z,16.40
2018-01-19T19:43:21.986Z,19.67
2018-01-19T19:45:49.713Z,18.33
2018-01-19T19:48:18.562Z,19.47
2018-01-19T19:50:46.140Z,25.30
2018-01-19T19:53:16.712Z,28.07
2018-01-19T19:55:44.642Z,23.57
2018-01-19T19:58:14.729Z,17.30
2018-01-19T20:00:42.631Z,18.00
2018-01-19T20:03:10.563Z,17.37
2018-01-19T20:05:38.455Z,22.97
2018-01-19T20:08:08.055Z,16.27
2018-01-19T20:10:35.412Z,19.53
2018-01-19T20:13:01.973Z,16.63
2018-01-19T20:15:29.358Z,19.60
2018-01-19T20:17:58.778Z,19.67
2018-01-19T20:20:25.817Z,24.77
2018-01-19T20:22:53.028Z,34.67
2018-01-19T20:25:20.277Z,29.33
2018-01-19T20:27:50.533Z,28.30
2018-01-19T20:30:17.614Z,31.87
2018-01-19T20:32:46.397Z,34.30
2018-01-19T20:35:13.660Z,33.17
2018-01-19T20:37:42.167Z,28.73
2018-01-19T20:40:09.041Z,19.03
2018-01-19T20:42:36.390Z,15.87
2018-01-19T20:45:12.671Z,14.07
2018-01-19T20:47:42.568Z,10.40
2018-01-19T20:50:11.807Z,12.40
2018-01-19T20:52:40.426Z,11.73
2018-01-19T20:55:07.244Z,16.97
2018-01-19T20:57:36.687Z,13.80
2018-01-19T21:00:05.438Z,19.73
2018-01-19T21:08:22.402Z,15.10
2018-01-19T21:10:51.919Z,14.10
2018-01-19T21:13:20.819Z,10.83
2018-01-19T21:15:50.716Z,10.63
2018-01-19T21:18:20.694Z,10.90
2018-01-19T21:20:49.520Z,10.23
2018-01-19T21:23:16.793Z,13.37
2018-01-19T21:25:45.278Z,13.87
2018-01-19T21:28:15.037Z,12.57
2018-01-19T21:30:43.432Z,13.07
2018-01-19T21:33:13.799Z,12.33
2018-01-19T21:35:44.364Z,10.40
2018-01-19T21:38:13.145Z,9.53
2018-01-19T21:40:40.604Z,9.23
2018-01-19T21:43:08.691Z,10.00
2018-01-19T21:45:35.966Z,11.17
2018-01-19T21:48:04.241Z,9.67
2018-01-19T21:50:33.148Z,11.07
2018-01-19T21:53:02.670Z,10.47
2018-01-19T21:55:30.538Z,8.87
2018-01-19T21:58:00.104Z,9.07
2018-01-19T22:00:28.914Z,9.40
2018-01-19T22:05:33.810Z,9.07
2018-01-19T22:08:01.297Z,8.53
2018-01-19T22:10:30.891Z,7.70
2018-01-19T22:13:02.528Z,10.43
2018-01-19T22:15:35.522Z,9.47
2018-01-19T22:18:06.648Z,9.50
2018-01-19T22:20:41.706Z,8.33
2018-01-19T22:23:24.305Z,7.60
2018-01-19T22:25:53.917Z,8.10
2018-01-19T22:28:23.258Z,7.43
2018-01-19T22:30:51.836Z,6.57
2018-01-19T22:33:22.650Z,6.43
2018-01-19T22:35:59.579Z,6.67
2018-01-19T22:38:27.315Z,9.80
2018-01-19T22:40:56.589Z,13.40
2018-01-19T22:46:12.849Z,11.07
2018-01-19T22:48:46.508Z,11.17
2018-01-19T22:51:13.351Z,10.00
2018-01-19T22:53:42.810Z,6.77
2018-01-19T22:56:10.302Z,6.47
2018-01-19T22:58:41.384Z,5.90
2018-01-19T23:01:11.292Z,8.07
2018-01-19T23:03:39.242Z,7.73
2018-01-19T23:06:07.488Z,8.20
2018-01-19T23:08:38.453Z,7.00
2018-01-19T23:11:06.119Z,7.87
2018-01-19T23:13:36.909Z,11.90
2018-01-19T23:16:07.185Z,9.37
2018-01-19T23:18:37.313Z,13.07
2018-01-19T23:21:05.548Z,12.80
2018-01-19T23:23:33.342Z,11.43
2018-01-19T23:26:02.535Z,9.97
2018-01-19T23:28:29.704Z,11.43
2018-01-19T23:30:58.254Z,9.73
2018-01-19T23:33:29.395Z,9.67
2018-01-19T23:35:58.200Z,10.57
2018-01-19T23:38:26.453Z,11.20
2018-01-19T23:40:53.651Z,11.00
2018-01-19T23:43:23.439Z,9.20
2018-01-19T23:45:50.925Z,10.90
2018-01-19T23:48:19.358Z,11.50
2018-01-19T23:50:47.327Z,9.73
2018-01-19T23:53:14.714Z,8.93
2018-01-19T23:55:41.976Z,10.10
2018-01-19T23:58:12.265Z,11.27
